Time;durP1;ratioP1;P1;durP2;ratioP2;P2;SDS_P1;SDS_P2;PMS_P1;PMS_P2;Temp;Humidity;BMP_temperature;BMP_pressure;BME280_temperature;BME280_humidity;BME280_pressure;Samples;Min_cycle;Max_cycle;Signal;HPM_P1;HPM_P2
2021/07/02 12:01:29;;;;;;;7.10;6.40;;;22.30;99.90;;;;;;5125532;27;20382;-60
2021/07/02 12:03:57;;;;;;;7.65;6.95;;;22.30;99.90;;;;;;5107847;28;20028;-60
2021/07/02 12:06:28;;;;;;;6.55;5.95;;;22.40;99.90;;;;;;5108729;28;20027;-60
2021/07/02 12:09:07;;;;;;;7.15;6.45;;;22.40;99.90;;;;;;5108690;28;20103;-62
2021/07/02 12:11:42;;;;;;;7.00;6.22;;;22.40;99.90;;;;;;5109477;28;20030;-61
2021/07/02 12:14:12;;;;;;;7.75;6.53;;;22.40;99.90;;;;;;5109532;28;20024;-61
2021/07/02 12:16:44;;;;;;;7.57;6.75;;;22.40;99.90;;;;;;5108508;28;20045;-62
2021/07/02 12:19:15;;;;;;;7.55;6.15;;;22.50;99.90;;;;;;5108545;28;20418;-61
2021/07/02 12:21:53;;;;;;;8.20;6.88;;;22.50;99.90;;;;;;5108679;28;20422;-61
2021/07/02 12:24:23;;;;;;;6.90;6.20;;;22.50;99.90;;;;;;5108760;28;20122;-61
2021/07/02 12:27:01;;;;;;;6.95;6.35;;;22.60;99.90;;;;;;5107500;28;20384;-60
2021/07/02 12:29:28;;;;;;;6.75;6.10;;;22.60;99.90;;;;;;5099411;28;20021;-63
2021/07/02 12:31:56;;;;;;;7.32;6.63;;;22.60;99.90;;;;;;5092739;28;20078;-60
2021/07/02 12:34:25;;;;;;;6.65;6.00;;;22.60;99.90;;;;;;5104565;28;20081;-62
2021/07/02 12:37:33;;;;;;;6.78;6.18;;;22.60;99.90;;;;;;5108723;28;20020;-60
2021/07/02 12:39:59;;;;;;;6.75;6.15;;;22.70;99.90;;;;;;5038278;28;20042;-61
2021/07/02 12:42:33;;;;;;;7.00;6.32;;;22.70;99.90;;;;;;5025974;28;20185;-66
2021/07/02 12:45:01;;;;;;;7.07;6.32;;;22.70;99.90;;;;;;5058728;28;20040;-70
2021/07/02 12:47:31;;;;;;;7.00;6.32;;;22.70;99.90;;;;;;5088031;28;20130;-67
2021/07/02 12:50:01;;;;;;;7.38;6.68;;;22.70;99.90;;;;;;5099724;28;20384;-68
2021/07/02 12:55:04;;;;;;;6.82;6.22;;;22.80;99.90;;;;;;5106697;28;20012;-64
2021/07/02 12:57:40;;;;;;;6.90;6.30;;;22.80;99.90;;;;;;5107792;28;20020;-61
2021/07/02 13:00:09;;;;;;;7.40;6.70;;;22.80;99.90;;;;;;5108287;28;20032;-63
2021/07/02 13:02:38;;;;;;;7.32;6.63;;;22.90;99.90;;;;;;5097426;28;20060;-63
2021/07/02 13:05:08;;;;;;;6.97;6.28;;;22.80;99.90;;;;;;5088274;28;20111;-67
2021/07/02 13:07:49;;;;;;;6.53;5.93;;;22.90;99.90;;;;;;5088029;28;20028;-68
2021/07/02 13:10:18;;;;;;;7.40;6.22;;;22.90;99.90;;;;;;5096297;28;20108;-62
2021/07/02 13:13:11;;;;;;;6.47;5.97;;;22.90;99.90;;;;;;5093420;28;20031;-63
2021/07/02 13:15:49;;;;;;;6.60;6.00;;;22.90;99.90;;;;;;5094747;28;20479;-66
2021/07/02 13:18:27;;;;;;;6.95;6.25;;;22.90;99.90;;;;;;5094399;28;20379;-65
2021/07/02 13:21:15;;;;;;;7.65;6.30;;;22.90;99.90;;;;;;5094105;28;20125;-74
2021/07/02 13:23:50;;;;;;;7.43;6.68;;;22.90;99.90;;;;;;5094434;28;20024;-76
2021/07/02 13:26:33;;;;;;;7.50;6.80;;;22.90;99.90;;;;;;5094006;28;20035;-74
2021/07/02 13:29:05;;;;;;;7.32;6.63;;;22.90;99.90;;;;;;5094186;28;20392;-71
2021/07/02 13:31:37;;;;;;;7.80;6.97;;;23.00;99.90;;;;;;5093831;28;20028;-75
2021/07/02 13:34:15;;;;;;;7.65;6.85;;;23.00;99.90;;;;;;5093998;28;20510;-74
2021/07/02 13:36:52;;;;;;;7.35;6.65;;;23.00;99.90;;;;;;5092727;28;20024;-74
2021/07/02 13:39:20;;;;;;;7.68;6.90;;;23.00;99.90;;;;;;5093350;28;20036;-75
2021/07/02 13:42:04;;;;;;;7.50;6.38;;;23.00;99.90;;;;;;5093915;28;20084;-60
2021/07/02 13:44:32;;;;;;;7.60;6.82;;;23.00;99.90;;;;;;5093476;28;20446;-65
2021/07/02 13:47:02;;;;;;;7.43;6.63;;;23.00;99.90;;;;;;5093915;28;20039;-60
2021/07/02 13:49:28;;;;;;;7.40;6.70;;;23.10;99.90;;;;;;5093431;28;20122;-62
2021/07/02 13:51:54;;;;;;;7.20;6.50;;;23.10;99.90;;;;;;5093287;28;20114;-61
2021/07/02 13:54:20;;;;;;;7.47;6.78;;;23.10;99.90;;;;;;5093024;28;20078;-61
2021/07/02 13:56:49;;;;;;;7.90;6.95;;;23.10;99.90;;;;;;5093726;28;20059;-62
2021/07/02 13:59:24;;;;;;;7.15;6.47;;;23.10;99.90;;;;;;5092977;28;20028;-61
2021/07/02 14:01:50;;;;;;;7.20;6.50;;;23.20;99.90;;;;;;5093486;28;20063;-62
2021/07/02 14:04:16;;;;;;;7.10;6.50;;;23.20;99.90;;;;;;5093263;28;20105;-61
2021/07/02 14:06:42;;;;;;;7.25;6.57;;;23.20;99.90;;;;;;5093459;28;20039;-69
2021/07/02 14:09:10;;;;;;;7.30;6.60;;;23.20;99.90;;;;;;5093033;28;20031;-61
2021/07/02 14:11:36;;;;;;;7.32;6.65;;;23.20;99.90;;;;;;5092877;28;20040;-66
2021/07/02 14:14:04;;;;;;;7.80;6.50;;;23.30;99.90;;;;;;5091449;28;20016;-68
2021/07/02 14:16:30;;;;;;;7.95;7.15;;;23.20;99.90;;;;;;5092768;28;20028;-68
2021/07/02 14:18:56;;;;;;;7.25;6.65;;;23.30;99.90;;;;;;5093117;28;20012;-74
2021/07/02 14:21:21;;;;;;;7.15;6.45;;;23.30;99.90;;;;;;5093027;28;20387;-67
2021/07/02 14:23:47;;;;;;;7.13;6.40;;;23.30;99.90;;;;;;5092033;28;20023;-62
2021/07/02 14:26:13;;;;;;;7.22;6.60;;;23.30;99.90;;;;;;5092916;28;20103;-69
2021/07/02 14:28:39;;;;;;;7.68;6.97;;;23.30;99.90;;;;;;5093170;28;20052;-69
2021/07/02 14:31:06;;;;;;;7.10;6.40;;;23.30;99.90;;;;;;5093326;28;20046;-69
2021/07/02 14:33:32;;;;;;;7.07;6.38;;;23.30;99.90;;;;;;5092845;28;20046;-70
2021/07/02 14:36:02;;;;;;;7.50;6.80;;;23.30;99.90;;;;;;5091560;28;20372;-70
2021/07/02 14:38:28;;;;;;;7.47;6.88;;;23.30;99.90;;;;;;5092430;28;20992;-66
2021/07/02 14:40:55;;;;;;;7.35;6.75;;;23.40;99.90;;;;;;5091783;28;20039;-68
2021/07/02 14:43:22;;;;;;;7.90;7.20;;;23.40;99.90;;;;;;5095370;28;20099;-68
2021/07/02 14:45:51;;;;;;;7.32;6.63;;;23.40;99.90;;;;;;5101838;28;20115;-69
2021/07/02 14:48:17;;;;;;;7.70;7.00;;;23.40;99.90;;;;;;5092008;28;20020;-70
2021/07/02 14:50:43;;;;;;;7.82;7.13;;;23.40;99.90;;;;;;5092638;28;20021;-73
2021/07/02 14:53:09;;;;;;;7.40;6.70;;;23.40;99.90;;;;;;5090699;28;20031;-71
2021/07/02 14:55:36;;;;;;;7.20;6.60;;;23.50;99.90;;;;;;5092659;28;20035;-67
2021/07/02 14:58:04;;;;;;;7.03;6.40;;;23.40;99.90;;;;;;5092574;28;20463;-75
2021/07/02 15:00:30;;;;;;;7.30;6.60;;;23.50;99.90;;;;;;5089910;28;20118;-76
2021/07/02 15:02:56;;;;;;;6.78;6.18;;;23.50;99.90;;;;;;5092305;28;20024;-71
2021/07/02 15:05:21;;;;;;;7.10;6.50;;;23.50;99.90;;;;;;5090116;28;20035;-73
2021/07/02 15:07:47;;;;;;;7.15;6.53;;;23.50;99.90;;;;;;5092234;28;20017;-71
2021/07/02 15:10:13;;;;;;;7.47;6.78;;;23.50;99.90;;;;;;5091312;28;20365;-72
2021/07/02 15:12:38;;;;;;;7.68;6.93;;;23.50;99.90;;;;;;5091704;28;20028;-69
2021/07/02 15:15:05;;;;;;;7.65;6.90;;;23.50;99.90;;;;;;5092123;28;20029;-72
2021/07/02 15:17:34;;;;;;;7.15;6.50;;;23.50;99.90;;;;;;5091800;28;20038;-72
2021/07/02 15:20:00;;;;;;;6.90;6.30;;;23.50;99.90;;;;;;5091867;28;20034;-70
2021/07/02 15:22:25;;;;;;;7.25;6.65;;;23.60;99.90;;;;;;5091731;28;20023;-65
2021/07/02 15:24:51;;;;;;;7.55;6.93;;;23.60;99.90;;;;;;5091864;28;20024;-73
2021/07/02 15:27:18;;;;;;;7.22;6.63;;;23.60;99.90;;;;;;5091710;28;20025;-72
2021/07/02 15:30:29;;;;;;;7.40;6.70;;;23.60;99.90;;;;;;5091820;28;20032;-68
2021/07/02 15:32:54;;;;;;;7.70;7.00;;;23.60;99.90;;;;;;5088723;28;20028;-73
2021/07/02 15:35:20;;;;;;;6.95;6.35;;;23.70;99.90;;;;;;5071022;28;20097;-67
2021/07/02 15:37:46;;;;;;;7.22;6.63;;;23.70;99.90;;;;;;5071353;28;20473;-63
2021/07/02 15:40:11;;;;;;;7.30;6.60;;;23.70;99.90;;;;;;5086277;28;20107;-64
2021/07/02 15:42:37;;;;;;;6.82;6.22;;;23.70;99.90;;;;;;5091903;28;20027;-71
2021/07/02 15:45:04;;;;;;;6.78;6.18;;;23.70;99.90;;;;;;5091843;28;20035;-72
2021/07/02 15:47:30;;;;;;;7.78;7.07;;;23.70;99.90;;;;;;5091003;28;20063;-66
2021/07/02 15:49:55;;;;;;;6.72;6.13;;;23.70;99.90;;;;;;5091036;28;20067;-72
2021/07/02 15:52:21;;;;;;;6.93;6.32;;;23.70;99.90;;;;;;5087848;28;20055;-66
2021/07/02 15:54:47;;;;;;;7.43;6.80;;;23.70;99.90;;;;;;5071261;28;20024;-62
2021/07/02 15:57:12;;;;;;;7.25;6.55;;;23.70;99.90;;;;;;5071029;28;20020;-63
2021/07/02 15:59:39;;;;;;;7.43;6.72;;;23.70;99.90;;;;;;5070162;28;20032;-69
2021/07/02 16:02:05;;;;;;;6.68;6.07;;;23.70;99.90;;;;;;5075251;28;20036;-70
2021/07/02 16:04:30;;;;;;;7.43;6.75;;;23.80;99.90;;;;;;5090052;28;20028;-68
2021/07/02 16:06:56;;;;;;;7.55;6.85;;;23.80;99.90;;;;;;5089788;28;20055;-63
2021/07/02 16:09:23;;;;;;;7.07;6.38;;;23.80;99.90;;;;;;5086492;28;20387;-68
2021/07/02 16:11:49;;;;;;;7.20;6.47;;;23.80;99.90;;;;;;5090466;28;20039;-65
2021/07/02 16:14:15;;;;;;;6.97;6.38;;;23.80;99.90;;;;;;5091164;28;20024;-72
2021/07/02 16:16:41;;;;;;;6.75;6.15;;;23.80;99.90;;;;;;5089983;28;20472;-67
2021/07/02 16:19:06;;;;;;;6.80;6.18;;;23.80;99.90;;;;;;5088929;28;20047;-67
2021/07/02 16:21:32;;;;;;;6.68;6.07;;;23.70;99.90;;;;;;5089274;28;20116;-67
2021/07/02 16:23:58;;;;;;;6.65;6.05;;;23.80;99.90;;;;;;5090525;28;20484;-66
2021/07/02 16:26:23;;;;;;;6.93;6.07;;;23.80;99.90;;;;;;5090652;28;20027;-71
2021/07/02 16:28:49;;;;;;;6.70;5.88;;;23.80;99.90;;;;;;5091109;28;20021;-73
2021/07/02 16:31:15;;;;;;;6.30;5.70;;;23.80;99.90;;;;;;5090956;28;20047;-62
2021/07/02 16:33:41;;;;;;;6.32;5.72;;;23.80;99.90;;;;;;5091094;28;20036;-62
2021/07/02 16:36:06;;;;;;;6.47;5.88;;;23.80;99.90;;;;;;5091342;28;20023;-72
2021/07/02 16:38:32;;;;;;;6.60;5.97;;;23.80;99.90;;;;;;5090347;28;20034;-71
2021/07/02 16:40:58;;;;;;;6.90;6.20;;;23.80;99.90;;;;;;5088491;28;20043;-70
2021/07/02 16:43:23;;;;;;;6.13;5.63;;;23.80;99.90;;;;;;5088458;28;20119;-71
2021/07/02 16:45:49;;;;;;;6.55;5.93;;;23.80;99.90;;;;;;5084937;28;20021;-72
2021/07/02 16:48:15;;;;;;;6.20;5.60;;;23.80;99.90;;;;;;5094140;28;20021;-72
2021/07/02 16:50:43;;;;;;;6.72;6.13;;;23.80;99.90;;;;;;5094875;28;20384;-70
2021/07/02 16:53:08;;;;;;;6.30;5.70;;;23.80;99.90;;;;;;5094001;28;20556;-68
2021/07/02 16:55:34;;;;;;;8.73;6.38;;;23.80;99.90;;;;;;5094777;28;20036;-68
2021/07/02 16:58:00;;;;;;;6.22;5.63;;;23.80;99.90;;;;;;5093274;28;20357;-66
2021/07/02 17:00:30;;;;;;;6.38;5.80;;;23.80;99.90;;;;;;5084200;28;20044;-66
2021/07/02 17:02:57;;;;;;;6.40;5.80;;;23.90;99.90;;;;;;5088635;28;20024;-65
2021/07/02 17:05:22;;;;;;;7.30;5.47;;;24.00;99.90;;;;;;5092373;28;20025;-71
2021/07/02 17:07:48;;;;;;;6.30;5.70;;;23.90;99.90;;;;;;5092559;28;20046;-66
2021/07/02 17:10:13;;;;;;;6.15;5.50;;;23.90;99.90;;;;;;5091020;28;20507;-73
2021/07/02 17:12:39;;;;;;;5.90;5.40;;;24.00;99.90;;;;;;5093425;28;20016;-74
2021/07/02 17:15:05;;;;;;;5.65;5.05;;;23.90;99.90;;;;;;5093890;28;20391;-72
2021/07/02 17:17:31;;;;;;;6.05;5.18;;;24.00;99.90;;;;;;5093449;28;20030;-73
2021/07/02 17:19:56;;;;;;;5.95;5.28;;;24.00;99.90;;;;;;5093602;28;20036;-72
2021/07/02 17:22:22;;;;;;;5.63;5.13;;;24.10;99.90;;;;;;5093411;28;20414;-69
2021/07/02 17:24:48;;;;;;;5.75;5.25;;;24.20;99.90;;;;;;5092087;28;20035;-64
2021/07/02 17:27:13;;;;;;;7.00;5.38;;;24.10;99.90;;;;;;5091743;28;20028;-65
2021/07/02 17:29:42;;;;;;;6.00;5.40;;;24.10;99.90;;;;;;5093632;28;20032;-73
2021/07/02 17:32:08;;;;;;;5.30;4.90;;;24.00;99.90;;;;;;5093947;28;20036;-64
2021/07/02 17:34:36;;;;;;;5.65;5.15;;;24.10;99.90;;;;;;5093602;28;20028;-66
2021/07/02 17:37:02;;;;;;;6.05;5.45;;;24.00;99.90;;;;;;5093885;28;20035;-75
2021/07/02 17:39:28;;;;;;;5.78;5.28;;;24.00;99.90;;;;;;5093380;28;20431;-74
2021/07/02 17:41:54;;;;;;;6.00;5.47;;;24.00;99.90;;;;;;5091560;28;20392;-62
2021/07/02 17:44:20;;;;;;;5.38;4.90;;;24.00;99.90;;;;;;5092790;28;20020;-66
2021/07/02 17:46:46;;;;;;;5.68;5.18;;;24.00;99.90;;;;;;5092088;28;20485;-68
2021/07/02 17:49:11;;;;;;;5.65;5.07;;;24.00;99.90;;;;;;5091382;28;20099;-70
2021/07/02 17:51:37;;;;;;;5.40;5.00;;;24.00;99.90;;;;;;5093532;28;20506;-73
2021/07/02 17:54:03;;;;;;;5.53;5.03;;;24.00;99.90;;;;;;5092706;28;20024;-65
2021/07/02 17:56:29;;;;;;;5.35;4.93;;;24.00;99.90;;;;;;5092753;28;20395;-68
2021/07/02 17:58:55;;;;;;;5.57;5.07;;;24.00;99.90;;;;;;5092295;28;20549;-65
2021/07/02 18:01:22;;;;;;;5.70;5.20;;;24.10;99.90;;;;;;5091931;28;20032;-69
2021/07/02 18:03:48;;;;;;;5.72;5.30;;;24.00;99.90;;;;;;5092124;28;20024;-64
2021/07/02 18:06:14;;;;;;;5.22;4.72;;;24.10;99.90;;;;;;5091662;28;20028;-68
2021/07/02 18:08:40;;;;;;;5.13;4.63;;;24.10;99.90;;;;;;5091984;28;20024;-67
2021/07/02 18:11:07;;;;;;;5.57;5.07;;;24.10;99.90;;;;;;5092242;28;20368;-68
2021/07/02 18:13:33;;;;;;;5.32;4.82;;;24.10;99.90;;;;;;5092260;28;20102;-67
2021/07/02 18:16:00;;;;;;;5.95;5.35;;;24.10;99.90;;;;;;5089524;28;20094;-70
2021/07/02 18:18:26;;;;;;;5.32;4.82;;;24.10;99.90;;;;;;5091478;28;20039;-67
2021/07/02 18:20:52;;;;;;;5.75;5.25;;;24.10;99.90;;;;;;5091789;28;20044;-69
2021/07/02 18:23:17;;;;;;;5.68;5.15;;;24.10;99.90;;;;;;5091655;28;20095;-66
2021/07/02 18:25:43;;;;;;;5.47;4.97;;;24.10;99.90;;;;;;5091083;28;20035;-64
2021/07/02 18:28:10;;;;;;;5.60;5.10;;;24.10;99.90;;;;;;5090877;28;20073;-63
2021/07/02 18:30:37;;;;;;;6.50;5.40;;;24.10;99.90;;;;;;5112734;27;20024;-63
2021/07/02 18:33:02;;;;;;;4.93;4.53;;;24.10;99.90;;;;;;5091698;28;20086;-63
2021/07/02 18:35:28;;;;;;;6.47;4.60;;;24.10;99.90;;;;;;5089044;28;20037;-65
2021/07/02 18:37:54;;;;;;;5.30;4.80;;;24.10;99.90;;;;;;5091224;28;20077;-63
2021/07/02 18:40:20;;;;;;;5.28;4.78;;;24.10;99.90;;;;;;5090764;28;20040;-67
2021/07/02 18:42:47;;;;;;;5.50;5.00;;;24.10;99.90;;;;;;5091624;28;20471;-62
2021/07/02 18:45:13;;;;;;;5.13;4.63;;;24.10;99.90;;;;;;5091073;28;20020;-62
2021/07/02 18:47:40;;;;;;;6.18;4.50;;;24.10;99.90;;;;;;5091300;28;20023;-68
2021/07/02 18:50:09;;;;;;;5.30;4.80;;;24.10;99.90;;;;;;5091634;28;20024;-61
2021/07/02 18:52:36;;;;;;;4.57;4.18;;;24.10;99.90;;;;;;5091382;28;20032;-63
2021/07/02 18:55:02;;;;;;;5.15;4.75;;;24.10;99.90;;;;;;5091025;28;20020;-63
2021/07/02 18:57:28;;;;;;;5.55;5.05;;;24.00;99.90;;;;;;5090738;28;20368;-66
2021/07/02 18:59:58;;;;;;;5.13;4.45;;;24.10;99.90;;;;;;5091299;28;20050;-63
2021/07/02 19:02:24;;;;;;;5.40;4.90;;;24.10;99.90;;;;;;5090859;28;20084;-62
2021/07/02 19:04:50;;;;;;;5.15;4.70;;;24.00;99.90;;;;;;5091132;28;20098;-66
2021/07/02 19:07:16;;;;;;;5.88;4.50;;;24.00;99.90;;;;;;5090151;28;20016;-63
2021/07/02 19:09:42;;;;;;;5.00;4.50;;;24.00;99.90;;;;;;5089958;28;20490;-62
2021/07/02 19:12:08;;;;;;;5.22;4.72;;;24.00;99.90;;;;;;5090363;28;20089;-63
2021/07/02 19:14:42;;;;;;;5.18;4.68;;;24.00;99.90;;;;;;5090991;28;20074;-62
2021/07/02 19:17:09;;;;;;;5.38;4.90;;;24.00;99.90;;;;;;5088585;28;20028;-62
2021/07/02 19:19:35;;;;;;;5.10;4.60;;;24.00;99.90;;;;;;5091683;28;20365;-67
2021/07/02 19:22:02;;;;;;;4.95;4.45;;;24.00;99.90;;;;;;5090774;28;20028;-64
2021/07/02 19:24:27;;;;;;;4.95;4.50;;;24.00;99.90;;;;;;5091541;28;20402;-66
2021/07/02 19:26:53;;;;;;;4.50;4.10;;;24.00;99.90;;;;;;5090978;28;20040;-67
2021/07/02 19:29:19;;;;;;;4.70;4.30;;;24.00;99.90;;;;;;5091545;28;20103;-66
2021/07/02 19:31:44;;;;;;;4.55;4.15;;;24.00;99.90;;;;;;5091917;28;20032;-65
2021/07/02 19:34:10;;;;;;;5.40;4.90;;;24.00;99.90;;;;;;5091535;28;20032;-65
2021/07/02 19:36:36;;;;;;;5.63;4.60;;;24.00;99.90;;;;;;5090501;28;20036;-67
2021/07/02 19:39:06;;;;;;;5.03;4.53;;;24.00;99.90;;;;;;5091703;28;20020;-69
2021/07/02 19:41:32;;;;;;;5.45;4.95;;;24.00;99.90;;;;;;5091356;28;20097;-64
2021/07/02 19:43:58;;;;;;;5.07;4.57;;;24.00;99.90;;;;;;5091577;28;20024;-68
2021/07/02 19:46:24;;;;;;;4.88;4.40;;;24.00;99.90;;;;;;5091347;28;20084;-67
2021/07/02 19:48:50;;;;;;;5.55;4.68;;;24.00;99.90;;;;;;5090416;28;20031;-66
2021/07/02 19:51:16;;;;;;;5.00;4.53;;;24.00;99.90;;;;;;5090467;28;20027;-67
2021/07/02 19:53:42;;;;;;;5.22;4.50;;;23.90;99.90;;;;;;5091135;28;20107;-64
2021/07/02 19:56:08;;;;;;;5.95;4.88;;;23.90;99.90;;;;;;5090718;28;20055;-63
2021/07/02 19:58:34;;;;;;;5.05;4.65;;;23.90;99.90;;;;;;5091107;28;20111;-66
2021/07/02 20:01:00;;;;;;;4.68;4.18;;;23.90;99.90;;;;;;5089298;28;20501;-66
2021/07/02 20:03:26;;;;;;;5.13;4.63;;;23.90;99.90;;;;;;5087296;28;20020;-64
2021/07/02 20:05:53;;;;;;;5.47;4.97;;;23.90;99.90;;;;;;5112002;28;20094;-70
2021/07/02 20:08:23;;;;;;;5.30;4.80;;;23.90;99.90;;;;;;5111333;28;20024;-72
2021/07/02 20:10:50;;;;;;;5.22;4.72;;;23.90;99.90;;;;;;5111613;28;20437;-72
2021/07/02 20:13:16;;;;;;;5.82;4.68;;;23.90;99.90;;;;;;5099773;28;20032;-69
2021/07/02 20:15:41;;;;;;;7.63;5.20;;;23.90;99.90;;;;;;5091249;28;20544;-69
2021/07/02 20:18:07;;;;;;;6.70;5.03;;;23.90;99.90;;;;;;5091653;28;20024;-66
2021/07/02 20:20:35;;;;;;;6.43;5.10;;;23.90;99.90;;;;;;5091401;28;20036;-64
2021/07/02 20:23:00;;;;;;;6.25;4.97;;;23.90;99.90;;;;;;5094707;28;20024;-67
2021/07/02 20:25:26;;;;;;;7.07;5.07;;;23.90;99.90;;;;;;5094744;28;20036;-68
2021/07/02 20:27:52;;;;;;;7.05;4.97;;;23.90;99.90;;;;;;5095396;28;20025;-68
2021/07/02 20:30:19;;;;;;;7.45;5.30;;;23.90;99.90;;;;;;5093770;28;20040;-66
2021/07/02 20:32:45;;;;;;;5.82;5.13;;;23.90;99.90;;;;;;5095636;28;20024;-65
2021/07/02 20:35:11;;;;;;;7.53;5.50;;;23.80;99.90;;;;;;5095062;28;20506;-66
2021/07/02 20:37:36;;;;;;;5.82;5.20;;;23.90;99.90;;;;;;5095446;28;20020;-71
2021/07/02 20:40:05;;;;;;;7.85;6.18;;;23.90;99.90;;;;;;5095058;28;20077;-69
2021/07/02 20:42:30;;;;;;;7.88;5.55;;;23.90;99.90;;;;;;5094874;28;20017;-75
2021/07/02 20:44:56;;;;;;;7.22;5.70;;;23.80;99.90;;;;;;5095006;28;20043;-71
2021/07/02 20:47:22;;;;;;;8.63;6.25;;;23.80;99.90;;;;;;5094698;28;20024;-67
2021/07/02 20:49:47;;;;;;;5.82;5.32;;;23.80;99.90;;;;;;5094583;28;20380;-66
2021/07/02 20:52:13;;;;;;;5.70;5.20;;;23.80;99.90;;;;;;5094767;28;20034;-66
2021/07/02 20:54:39;;;;;;;8.10;5.88;;;23.80;99.90;;;;;;5094928;28;20024;-63
2021/07/02 20:57:05;;;;;;;5.80;5.20;;;23.80;99.90;;;;;;5094986;28;20047;-65
2021/07/02 20:59:31;;;;;;;8.80;6.40;;;23.80;99.90;;;;;;5094306;28;20032;-65
2021/07/02 21:01:58;;;;;;;6.35;5.78;;;23.80;99.90;;;;;;5094222;28;20376;-69
2021/07/02 21:04:24;;;;;;;6.65;6.05;;;23.70;99.90;;;;;;5094249;28;20492;-63
2021/07/02 21:06:50;;;;;;;6.80;6.13;;;23.70;99.90;;;;;;5094133;28;20028;-63
2021/07/02 21:09:15;;;;;;;6.50;5.80;;;23.80;99.90;;;;;;5094236;28;20020;-68
2021/07/02 21:11:43;;;;;;;7.18;6.40;;;23.70;99.90;;;;;;5093775;28;20031;-66
2021/07/02 21:14:10;;;;;;;6.60;5.90;;;23.70;99.90;;;;;;5102402;28;20027;-70
2021/07/02 21:16:36;;;;;;;6.65;6.05;;;23.70;99.90;;;;;;5115715;28;20035;-68
2021/07/02 21:19:01;;;;;;;6.82;6.15;;;23.70;99.90;;;;;;5103111;28;20487;-70
2021/07/02 21:21:27;;;;;;;7.72;6.40;;;23.70;99.90;;;;;;5114411;28;20507;-65
2021/07/02 21:23:53;;;;;;;7.75;6.55;;;23.70;99.90;;;;;;5114737;28;20466;-65
2021/07/02 21:26:18;;;;;;;6.85;6.18;;;23.70;99.90;;;;;;5114435;28;20030;-64
2021/07/02 21:28:44;;;;;;;6.90;6.18;;;23.70;99.90;;;;;;5114707;28;20024;-73
